アナディリ の空港の天気 - METARとTAF

アナディリ・ウゴルヌイ空港 ( UHMA / DYR ) - ロシア アナディリ
飛行場実況気象(Metar)
観測時間04/26 22:00 MAGT (04/26 11:00 UTC)
風向・風速北西 5m/s
視程10km以上
天気現象
全天の8割程度の雲 雲底高度 1310m
全天を覆う雲 雲底高度 2440m
気温-7℃
湿度93%
気圧999hPa
METARUHMA 261100Z 32005MPS 9999 BKN043 OVC080 M07/M08 Q0999 R88/60D NOSIG RMK END R01/32005MPS QFE745/0994
過去の天気等 Google飛行場航空写真 Wunderground天気予報

過去48時間のMETAR

飛行場予報(TAF)
発表時間: 4/26 18:53 MAGT (4/26 07:53 UTC)
予報対象時間: 26日20時 MAGT ~ 27日20時 MAGT
風向・風速北 5m/s
視程10km以上
天気現象弱い雪
全天の4割程度の雲 雲底高度 300m
全天の8割程度の雲 雲底高度 910m
26日20時 MAGT ~ 27日8時 MAGT に一時的に
風向・風速北西 5m/s
視程2,000m
天気現象しゅう雪
全天の8割程度の雲 雲底高度 180m
全天の8割程度の積乱雲 雲底高度 610m
27日8時 MAGT から
風向・風速北北西 5m/s
視程10km以上
少しの雲 雲底高度 300m
全天の4割程度の雲 雲底高度 910m
27日10時 MAGT ~ 27日16時 MAGT に一時的に
風向・風速西北西 8m/s
TAF UHMA 260753Z 2609/2709 36005MPS 9999 -SN SCT010 BKN030
TEMPO 2609/2621 32005MPS 2000 SHSN BKN006 BKN020CB
FM262100 34005MPS 9999 FEW010 SCT030
TEMPO 2623/2705 30008MPS